sensor_id;sensor_type;location;lat;lon;timestamp;temperature;humidity
13322;DHT22;6730;46.248;6.930;2023-02-01T00:00:01;1.70;99.90
13322;DHT22;6730;46.248;6.930;2023-02-01T00:02:27;1.70;99.90
13322;DHT22;6730;46.248;6.930;2023-02-01T00:04:53;1.90;99.90
13322;DHT22;6730;46.248;6.930;2023-02-01T00:07:19;2.00;99.90
13322;DHT22;6730;46.248;6.930;2023-02-01T00:09:45;2.00;99.90
13322;DHT22;6730;46.248;6.930;2023-02-01T00:12:13;2.30;99.90
13322;DHT22;6730;46.248;6.930;2023-02-01T00:14:39;2.50;99.90
13322;DHT22;6730;46.248;6.930;2023-02-01T00:17:08;2.60;99.90
13322;DHT22;6730;46.248;6.930;2023-02-01T00:19:36;2.30;99.90
13322;DHT22;6730;46.248;6.930;2023-02-01T00:22:01;2.70;99.90
13322;DHT22;6730;46.248;6.930;2023-02-01T00:24:27;3.00;99.90
13322;DHT22;6730;46.248;6.930;2023-02-01T00:26:53;3.10;99.90
13322;DHT22;6730;46.248;6.930;2023-02-01T00:29:20;2.90;99.90
13322;DHT22;6730;46.248;6.930;2023-02-01T00:31:45;2.50;99.90
13322;DHT22;6730;46.248;6.930;2023-02-01T00:34:15;2.60;99.90
13322;DHT22;6730;46.248;6.930;2023-02-01T00:36:41;2.50;99.90
13322;DHT22;6730;46.248;6.930;2023-02-01T00:39:08;2.40;99.90
13322;DHT22;6730;46.248;6.930;2023-02-01T00:41:33;2.40;99.90
13322;DHT22;6730;46.248;6.930;2023-02-01T00:43:59;2.40;99.90
13322;DHT22;6730;46.248;6.930;2023-02-01T00:46:24;2.50;99.90
13322;DHT22;6730;46.248;6.930;2023-02-01T00:48:50;2.60;99.90
13322;DHT22;6730;46.248;6.930;2023-02-01T00:51:19;2.40;99.90
13322;DHT22;6730;46.248;6.930;2023-02-01T00:53:46;2.10;99.90
13322;DHT22;6730;46.248;6.930;2023-02-01T00:56:11;2.00;99.90
13322;DHT22;6730;46.248;6.930;2023-02-01T00:58:37;1.90;99.90
13322;DHT22;6730;46.248;6.930;2023-02-01T01:01:17;1.80;99.90
13322;DHT22;6730;46.248;6.930;2023-02-01T01:03:46;1.80;99.90
13322;DHT22;6730;46.248;6.930;2023-02-01T01:06:18;1.90;99.90
13322;DHT22;6730;46.248;6.930;2023-02-01T01:08:44;1.80;99.90
13322;DHT22;6730;46.248;6.930;2023-02-01T01:11:13;1.70;99.90
13322;DHT22;6730;46.248;6.930;2023-02-01T01:13:39;1.70;99.90
13322;DHT22;6730;46.248;6.930;2023-02-01T01:16:06;1.80;99.90
13322;DHT22;6730;46.248;6.930;2023-02-01T01:18:33;1.80;99.90
13322;DHT22;6730;46.248;6.930;2023-02-01T01:21:00;1.70;99.90
13322;DHT22;6730;46.248;6.930;2023-02-01T01:23:27;1.70;99.90
13322;DHT22;6730;46.248;6.930;2023-02-01T01:25:53;1.80;99.90
13322;DHT22;6730;46.248;6.930;2023-02-01T01:28:19;1.60;99.90
13322;DHT22;6730;46.248;6.930;2023-02-01T01:30:44;1.50;99.90
13322;DHT22;6730;46.248;6.930;2023-02-01T01:33:10;1.60;99.90
13322;DHT22;6730;46.248;6.930;2023-02-01T01:35:36;1.70;99.90
13322;DHT22;6730;46.248;6.930;2023-02-01T01:38:02;1.70;99.90
13322;DHT22;6730;46.248;6.930;2023-02-01T01:40:29;1.70;99.90
13322;DHT22;6730;46.248;6.930;2023-02-01T01:42:55;1.50;99.90
13322;DHT22;6730;46.248;6.930;2023-02-01T01:48:04;1.60;99.90
13322;DHT22;6730;46.248;6.930;2023-02-01T01:50:35;1.80;99.90
13322;DHT22;6730;46.248;6.930;2023-02-01T01:53:04;2.00;99.90
13322;DHT22;6730;46.248;6.930;2023-02-01T01:55:33;2.10;99.90
13322;DHT22;6730;46.248;6.930;2023-02-01T01:58:05;2.10;99.90
13322;DHT22;6730;46.248;6.930;2023-02-01T02:00:31;2.10;99.90
13322;DHT22;6730;46.248;6.930;2023-02-01T02:03:02;1.90;99.90
13322;DHT22;6730;46.248;6.930;2023-02-01T02:05:29;1.70;99.90
13322;DHT22;6730;46.248;6.930;2023-02-01T02:07:58;1.60;99.90
13322;DHT22;6730;46.248;6.930;2023-02-01T02:10:26;1.40;99.90
13322;DHT22;6730;46.248;6.930;2023-02-01T02:13:14;1.40;99.90
13322;DHT22;6730;46.248;6.930;2023-02-01T02:15:45;1.20;99.90
13322;DHT22;6730;46.248;6.930;2023-02-01T02:18:30;1.20;99.90
13322;DHT22;6730;46.248;6.930;2023-02-01T02:34:27;1.30;99.90
13322;DHT22;6730;46.248;6.930;2023-02-01T02:37:24;1.50;99.90
13322;DHT22;6730;46.248;6.930;2023-02-01T02:45:47;1.60;99.90
13322;DHT22;6730;46.248;6.930;2023-02-01T02:54:56;1.50;99.90
13322;DHT22;6730;46.248;6.930;2023-02-01T02:57:37;1.60;99.90
13322;DHT22;6730;46.248;6.930;2023-02-01T03:00:28;1.30;99.90
13322;DHT22;6730;46.248;6.930;2023-02-01T03:03:13;1.40;99.90
13322;DHT22;6730;46.248;6.930;2023-02-01T03:05:57;1.40;99.90
13322;DHT22;6730;46.248;6.930;2023-02-01T03:08:28;1.30;99.90
13322;DHT22;6730;46.248;6.930;2023-02-01T03:11:00;1.10;99.90
13322;DHT22;6730;46.248;6.930;2023-02-01T03:13:49;1.00;99.90
13322;DHT22;6730;46.248;6.930;2023-02-01T03:16:24;0.90;99.90
13322;DHT22;6730;46.248;6.930;2023-02-01T03:19:01;0.80;99.90
13322;DHT22;6730;46.248;6.930;2023-02-01T03:21:53;0.70;99.90
13322;DHT22;6730;46.248;6.930;2023-02-01T03:24:33;0.80;99.90
13322;DHT22;6730;46.248;6.930;2023-02-01T03:27:13;0.90;99.90
13322;DHT22;6730;46.248;6.930;2023-02-01T03:32:15;1.10;99.90
13322;DHT22;6730;46.248;6.930;2023-02-01T03:34:41;1.10;99.90
13322;DHT22;6730;46.248;6.930;2023-02-01T03:37:10;1.10;99.90
13322;DHT22;6730;46.248;6.930;2023-02-01T03:39:47;1.00;99.90
13322;DHT22;6730;46.248;6.930;2023-02-01T03:42:18;1.20;99.90
13322;DHT22;6730;46.248;6.930;2023-02-01T03:44:55;1.40;99.90
13322;DHT22;6730;46.248;6.930;2023-02-01T03:47:25;1.30;99.90
13322;DHT22;6730;46.248;6.930;2023-02-01T03:49:57;1.20;99.90
13322;DHT22;6730;46.248;6.930;2023-02-01T03:52:48;1.20;99.90
13322;DHT22;6730;46.248;6.930;2023-02-01T03:55:18;1.20;99.90
13322;DHT22;6730;46.248;6.930;2023-02-01T03:58:13;1.30;99.90
13322;DHT22;6730;46.248;6.930;2023-02-01T04:00:39;1.50;99.90
13322;DHT22;6730;46.248;6.930;2023-02-01T04:03:06;1.50;99.90
13322;DHT22;6730;46.248;6.930;2023-02-01T04:05:32;1.50;99.90
13322;DHT22;6730;46.248;6.930;2023-02-01T04:07:58;1.40;99.90
13322;DHT22;6730;46.248;6.930;2023-02-01T04:10:24;1.30;99.90
13322;DHT22;6730;46.248;6.930;2023-02-01T05:23:37;0.60;99.90
13322;DHT22;6730;46.248;6.930;2023-02-01T05:26:23;0.70;99.90
13322;DHT22;6730;46.248;6.930;2023-02-01T05:28:49;0.50;99.90
13322;DHT22;6730;46.248;6.930;2023-02-01T05:31:15;0.50;99.90
13322;DHT22;6730;46.248;6.930;2023-02-01T05:33:40;0.40;99.90
13322;DHT22;6730;46.248;6.930;2023-02-01T05:36:06;0.40;99.90
13322;DHT22;6730;46.248;6.930;2023-02-01T05:38:32;0.50;99.90
13322;DHT22;6730;46.248;6.930;2023-02-01T05:40:58;0.80;99.90
13322;DHT22;6730;46.248;6.930;2023-02-01T05:43:24;0.60;99.90
13322;DHT22;6730;46.248;6.930;2023-02-01T05:45:52;0.50;99.90
13322;DHT22;6730;46.248;6.930;2023-02-01T05:48:18;0.70;99.90
13322;DHT22;6730;46.248;6.930;2023-02-01T05:50:44;0.90;99.90
13322;DHT22;6730;46.248;6.930;2023-02-01T05:53:09;0.80;99.90
13322;DHT22;6730;46.248;6.930;2023-02-01T05:55:36;1.00;99.90
13322;DHT22;6730;46.248;6.930;2023-02-01T05:58:02;1.00;99.90
13322;DHT22;6730;46.248;6.930;2023-02-01T06:00:27;0.70;99.90
13322;DHT22;6730;46.248;6.930;2023-02-01T06:02:53;0.40;99.90
13322;DHT22;6730;46.248;6.930;2023-02-01T06:05:18;0.30;99.90
13322;DHT22;6730;46.248;6.930;2023-02-01T06:07:44;0.50;99.90
13322;DHT22;6730;46.248;6.930;2023-02-01T06:10:10;0.50;99.90
13322;DHT22;6730;46.248;6.930;2023-02-01T06:12:36;0.60;99.90
13322;DHT22;6730;46.248;6.930;2023-02-01T06:15:02;0.70;99.90
13322;DHT22;6730;46.248;6.930;2023-02-01T06:17:27;0.80;99.90
13322;DHT22;6730;46.248;6.930;2023-02-01T06:19:53;1.00;99.90
13322;DHT22;6730;46.248;6.930;2023-02-01T06:22:18;1.10;99.90
13322;DHT22;6730;46.248;6.930;2023-02-01T06:24:44;1.20;99.90
13322;DHT22;6730;46.248;6.930;2023-02-01T06:27:10;1.20;99.90
13322;DHT22;6730;46.248;6.930;2023-02-01T06:29:36;1.30;99.90
13322;DHT22;6730;46.248;6.930;2023-02-01T06:32:02;1.30;99.90
13322;DHT22;6730;46.248;6.930;2023-02-01T06:34:28;1.10;99.90
13322;DHT22;6730;46.248;6.930;2023-02-01T06:36:54;1.20;99.90
13322;DHT22;6730;46.248;6.930;2023-02-01T06:39:20;1.10;99.90
13322;DHT22;6730;46.248;6.930;2023-02-01T06:41:47;1.10;99.90
13322;DHT22;6730;46.248;6.930;2023-02-01T06:44:13;1.00;99.90
13322;DHT22;6730;46.248;6.930;2023-02-01T06:46:38;1.00;99.90
13322;DHT22;6730;46.248;6.930;2023-02-01T06:49:04;1.00;99.90
13322;DHT22;6730;46.248;6.930;2023-02-01T06:51:30;0.90;99.90
13322;DHT22;6730;46.248;6.930;2023-02-01T06:53:56;0.90;99.90
13322;DHT22;6730;46.248;6.930;2023-02-01T06:56:21;1.00;99.90
13322;DHT22;6730;46.248;6.930;2023-02-01T06:58:47;0.80;99.90
13322;DHT22;6730;46.248;6.930;2023-02-01T07:01:14;0.60;99.90
13322;DHT22;6730;46.248;6.930;2023-02-01T07:03:40;0.50;99.90
13322;DHT22;6730;46.248;6.930;2023-02-01T07:06:07;0.40;99.90
13322;DHT22;6730;46.248;6.930;2023-02-01T07:08:34;0.50;99.90
13322;DHT22;6730;46.248;6.930;2023-02-01T07:11:05;0.60;99.90
13322;DHT22;6730;46.248;6.930;2023-02-01T07:13:31;0.40;99.90
13322;DHT22;6730;46.248;6.930;2023-02-01T07:16:05;0.30;99.90
13322;DHT22;6730;46.248;6.930;2023-02-01T07:18:31;0.30;99.90
13322;DHT22;6730;46.248;6.930;2023-02-01T07:20:57;0.40;99.90
13322;DHT22;6730;46.248;6.930;2023-02-01T07:23:24;0.50;99.90
13322;DHT22;6730;46.248;6.930;2023-02-01T07:25:57;0.60;99.90
13322;DHT22;6730;46.248;6.930;2023-02-01T07:28:23;0.50;99.90
13322;DHT22;6730;46.248;6.930;2023-02-01T07:30:49;0.80;99.90
13322;DHT22;6730;46.248;6.930;2023-02-01T07:33:25;0.80;99.90
13322;DHT22;6730;46.248;6.930;2023-02-01T07:35:52;1.20;99.90
13322;DHT22;6730;46.248;6.930;2023-02-01T07:38:18;1.20;99.90
13322;DHT22;6730;46.248;6.930;2023-02-01T07:40:44;1.00;99.90
13322;DHT22;6730;46.248;6.930;2023-02-01T07:43:10;1.10;99.90
13322;DHT22;6730;46.248;6.930;2023-02-01T07:45:36;1.10;99.90
13322;DHT22;6730;46.248;6.930;2023-02-01T07:48:02;1.50;99.90
13322;DHT22;6730;46.248;6.930;2023-02-01T07:50:29;1.60;99.90
13322;DHT22;6730;46.248;6.930;2023-02-01T07:52:55;1.80;99.90
13322;DHT22;6730;46.248;6.930;2023-02-01T07:55:21;2.00;99.90
13322;DHT22;6730;46.248;6.930;2023-02-01T07:57:47;2.70;99.90
13322;DHT22;6730;46.248;6.930;2023-02-01T08:00:13;3.20;99.90
13322;DHT22;6730;46.248;6.930;2023-02-01T08:02:58;4.10;99.90
13322;DHT22;6730;46.248;6.930;2023-02-01T08:05:24;4.60;99.90
13322;DHT22;6730;46.248;6.930;2023-02-01T08:07:49;4.50;99.90
13322;DHT22;6730;46.248;6.930;2023-02-01T08:10:16;4.20;99.90
13322;DHT22;6730;46.248;6.930;2023-02-01T08:12:41;4.10;99.90
13322;DHT22;6730;46.248;6.930;2023-02-01T08:15:07;4.20;99.90
13322;DHT22;6730;46.248;6.930;2023-02-01T08:17:33;4.40;99.90
13322;DHT22;6730;46.248;6.930;2023-02-01T08:19:59;5.50;99.90
13322;DHT22;6730;46.248;6.930;2023-02-01T08:22:24;5.40;99.90
13322;DHT22;6730;46.248;6.930;2023-02-01T08:24:50;5.40;99.90
13322;DHT22;6730;46.248;6.930;2023-02-01T08:27:17;5.50;99.90
13322;DHT22;6730;46.248;6.930;2023-02-01T08:29:42;6.90;99.90
13322;DHT22;6730;46.248;6.930;2023-02-01T08:32:08;7.90;99.90
13322;DHT22;6730;46.248;6.930;2023-02-01T08:34:33;8.90;99.90
13322;DHT22;6730;46.248;6.930;2023-02-01T08:36:59;9.30;99.90
13322;DHT22;6730;46.248;6.930;2023-02-01T08:39:26;9.10;99.90
13322;DHT22;6730;46.248;6.930;2023-02-01T08:41:52;9.50;99.90
13322;DHT22;6730;46.248;6.930;2023-02-01T08:44:36;8.80;99.90
13322;DHT22;6730;46.248;6.930;2023-02-01T08:47:02;7.40;99.90
13322;DHT22;6730;46.248;6.930;2023-02-01T08:49:28;6.30;99.90
13322;DHT22;6730;46.248;6.930;2023-02-01T08:51:54;5.30;99.90
13322;DHT22;6730;46.248;6.930;2023-02-01T08:54:21;5.00;99.90
13322;DHT22;6730;46.248;6.930;2023-02-01T08:56:46;4.80;99.90
13322;DHT22;6730;46.248;6.930;2023-02-01T08:59:12;4.20;99.90
13322;DHT22;6730;46.248;6.930;2023-02-01T09:01:37;3.40;99.90
13322;DHT22;6730;46.248;6.930;2023-02-01T09:04:03;3.30;99.90
13322;DHT22;6730;46.248;6.930;2023-02-01T09:06:29;3.70;99.90
13322;DHT22;6730;46.248;6.930;2023-02-01T09:08:54;3.80;99.90
13322;DHT22;6730;46.248;6.930;2023-02-01T09:11:20;3.70;99.90
13322;DHT22;6730;46.248;6.930;2023-02-01T09:13:47;3.50;99.90
13322;DHT22;6730;46.248;6.930;2023-02-01T09:16:13;3.50;99.90
13322;DHT22;6730;46.248;6.930;2023-02-01T09:18:39;3.90;99.90
13322;DHT22;6730;46.248;6.930;2023-02-01T09:21:06;4.30;99.90
13322;DHT22;6730;46.248;6.930;2023-02-01T09:23:32;4.70;99.90
13322;DHT22;6730;46.248;6.930;2023-02-01T09:26:02;4.60;99.90
13322;DHT22;6730;46.248;6.930;2023-02-01T09:28:28;4.50;99.90
13322;DHT22;6730;46.248;6.930;2023-02-01T09:30:58;4.40;99.90
13322;DHT22;6730;46.248;6.930;2023-02-01T09:33:25;4.10;99.90
13322;DHT22;6730;46.248;6.930;2023-02-01T09:35:59;4.10;99.90
13322;DHT22;6730;46.248;6.930;2023-02-01T09:38:25;4.00;99.90
13322;DHT22;6730;46.248;6.930;2023-02-01T09:40:53;4.30;99.90
13322;DHT22;6730;46.248;6.930;2023-02-01T09:43:25;4.70;99.90
13322;DHT22;6730;46.248;6.930;2023-02-01T09:48:30;6.50;99.90
13322;DHT22;6730;46.248;6.930;2023-02-01T09:50:59;5.40;99.90
13322;DHT22;6730;46.248;6.930;2023-02-01T09:55:58;4.00;99.90
13322;DHT22;6730;46.248;6.930;2023-02-01T09:58:40;4.40;99.90
13322;DHT22;6730;46.248;6.930;2023-02-01T10:01:19;4.50;99.90
13322;DHT22;6730;46.248;6.930;2023-02-01T10:03:45;4.80;99.90
13322;DHT22;6730;46.248;6.930;2023-02-01T10:06:36;4.70;99.90
13322;DHT22;6730;46.248;6.930;2023-02-01T10:12:34;5.80;99.90
13322;DHT22;6730;46.248;6.930;2023-02-01T10:18:37;6.70;99.90
13322;DHT22;6730;46.248;6.930;2023-02-01T10:23:49;6.50;99.90
13322;DHT22;6730;46.248;6.930;2023-02-01T10:28:52;6.20;99.90
13322;DHT22;6730;46.248;6.930;2023-02-01T10:31:18;6.20;99.90
13322;DHT22;6730;46.248;6.930;2023-02-01T10:33:52;6.00;99.90
13322;DHT22;6730;46.248;6.930;2023-02-01T10:36:35;5.90;99.90
13322;DHT22;6730;46.248;6.930;2023-02-01T10:39:03;5.80;99.90
13322;DHT22;6730;46.248;6.930;2023-02-01T10:41:38;5.80;99.90
13322;DHT22;6730;46.248;6.930;2023-02-01T10:44:13;6.20;99.90
13322;DHT22;6730;46.248;6.930;2023-02-01T10:46:39;7.70;99.90
13322;DHT22;6730;46.248;6.930;2023-02-01T10:49:13;9.40;99.90
13322;DHT22;6730;46.248;6.930;2023-02-01T10:51:53;8.90;99.90
13322;DHT22;6730;46.248;6.930;2023-02-01T10:54:31;8.50;99.90
13322;DHT22;6730;46.248;6.930;2023-02-01T10:56:57;8.10;99.90
13322;DHT22;6730;46.248;6.930;2023-02-01T10:59:28;8.50;99.90
13322;DHT22;6730;46.248;6.930;2023-02-01T11:02:13;8.40;99.90
13322;DHT22;6730;46.248;6.930;2023-02-01T11:04:41;8.50;99.90
13322;DHT22;6730;46.248;6.930;2023-02-01T11:07:16;8.50;99.90
13322;DHT22;6730;46.248;6.930;2023-02-01T11:09:50;8.20;99.90
13322;DHT22;6730;46.248;6.930;2023-02-01T11:12:30;7.90;99.90
13322;DHT22;6730;46.248;6.930;2023-02-01T11:15:22;8.70;99.90
13322;DHT22;6730;46.248;6.930;2023-02-01T11:17:50;8.20;99.90
13322;DHT22;6730;46.248;6.930;2023-02-01T11:20:41;8.30;99.90
13322;DHT22;6730;46.248;6.930;2023-02-01T11:23:18;8.40;99.90
13322;DHT22;6730;46.248;6.930;2023-02-01T11:25:54;8.10;99.90
13322;DHT22;6730;46.248;6.930;2023-02-01T11:28:23;8.00;99.90
13322;DHT22;6730;46.248;6.930;2023-02-01T11:30:49;7.90;99.90
13322;DHT22;6730;46.248;6.930;2023-02-01T11:33:23;7.90;99.90
13322;DHT22;6730;46.248;6.930;2023-02-01T11:35:52;8.60;99.90
13322;DHT22;6730;46.248;6.930;2023-02-01T11:38:29;8.70;99.90
13322;DHT22;6730;46.248;6.930;2023-02-01T11:41:10;8.60;99.90
13322;DHT22;6730;46.248;6.930;2023-02-01T11:43:36;8.90;99.90
13322;DHT22;6730;46.248;6.930;2023-02-01T11:46:03;9.10;99.90
13322;DHT22;6730;46.248;6.930;2023-02-01T11:48:40;8.80;99.90
13322;DHT22;6730;46.248;6.930;2023-02-01T11:54:18;9.70;99.90
13322;DHT22;6730;46.248;6.930;2023-02-01T12:00:15;9.80;99.80
13322;DHT22;6730;46.248;6.930;2023-02-01T12:08:58;8.70;99.90
13322;DHT22;6730;46.248;6.930;2023-02-01T12:26:18;7.60;99.90
13322;DHT22;6730;46.248;6.930;2023-02-01T12:31:49;8.00;99.90
13322;DHT22;6730;46.248;6.930;2023-02-01T12:37:44;8.30;99.90
13322;DHT22;6730;46.248;6.930;2023-02-01T12:40:49;7.90;99.90
13322;DHT22;6730;46.248;6.930;2023-02-01T12:46:08;8.80;99.90
13322;DHT22;6730;46.248;6.930;2023-02-01T12:51:33;7.20;99.90
13322;DHT22;6730;46.248;6.930;2023-02-01T12:57:01;6.90;99.90
13322;DHT22;6730;46.248;6.930;2023-02-01T13:05:24;5.50;99.90
13322;DHT22;6730;46.248;6.930;2023-02-01T13:08:08;5.30;99.90
13322;DHT22;6730;46.248;6.930;2023-02-01T13:10:48;5.20;99.90
13322;DHT22;6730;46.248;6.930;2023-02-01T13:13:48;4.80;99.90
13322;DHT22;6730;46.248;6.930;2023-02-01T13:16:25;4.80;99.90
13322;DHT22;6730;46.248;6.930;2023-02-01T13:19:02;5.00;99.90
13322;DHT22;6730;46.248;6.930;2023-02-01T13:21:35;5.30;99.90
13322;DHT22;6730;46.248;6.930;2023-02-01T13:24:04;4.90;99.90
13322;DHT22;6730;46.248;6.930;2023-02-01T13:26:29;4.60;99.90
13322;DHT22;6730;46.248;6.930;2023-02-01T13:29:06;4.80;99.90
13322;DHT22;6730;46.248;6.930;2023-02-01T13:34:37;4.50;99.90
13322;DHT22;6730;46.248;6.930;2023-02-01T13:37:36;4.70;99.90
13322;DHT22;6730;46.248;6.930;2023-02-01T13:42:51;4.80;99.90
13322;DHT22;6730;46.248;6.930;2023-02-01T13:45:21;4.50;99.90
13322;DHT22;6730;46.248;6.930;2023-02-01T13:47:51;4.50;99.90
13322;DHT22;6730;46.248;6.930;2023-02-01T13:50:27;4.80;99.90
13322;DHT22;6730;46.248;6.930;2023-02-01T13:53:03;4.50;99.90
13322;DHT22;6730;46.248;6.930;2023-02-01T13:55:46;4.70;99.90
13322;DHT22;6730;46.248;6.930;2023-02-01T13:58:21;4.90;99.90
13322;DHT22;6730;46.248;6.930;2023-02-01T14:00:48;4.80;99.90
13322;DHT22;6730;46.248;6.930;2023-02-01T14:03:45;4.60;99.90
13322;DHT22;6730;46.248;6.930;2023-02-01T14:11:48;4.70;99.90
13322;DHT22;6730;46.248;6.930;2023-02-01T14:16:40;4.60;99.90
13322;DHT22;6730;46.248;6.930;2023-02-01T14:29:44;4.90;99.90
13322;DHT22;6730;46.248;6.930;2023-02-01T14:32:24;4.90;99.90
13322;DHT22;6730;46.248;6.930;2023-02-01T14:34:53;4.90;99.90
13322;DHT22;6730;46.248;6.930;2023-02-01T14:37:23;5.00;99.90
13322;DHT22;6730;46.248;6.930;2023-02-01T14:47:54;5.20;99.90
13322;DHT22;6730;46.248;6.930;2023-02-01T15:09:31;6.70;99.90
13322;DHT22;6730;46.248;6.930;2023-02-01T15:14:31;6.60;99.90
13322;DHT22;6730;46.248;6.930;2023-02-01T15:16:57;6.50;99.90
13322;DHT22;6730;46.248;6.930;2023-02-01T15:19:25;6.50;99.90
13322;DHT22;6730;46.248;6.930;2023-02-01T15:21:56;6.70;99.90
13322;DHT22;6730;46.248;6.930;2023-02-01T15:24:23;6.60;99.90
13322;DHT22;6730;46.248;6.930;2023-02-01T15:26:51;6.40;99.90
13322;DHT22;6730;46.248;6.930;2023-02-01T15:29:17;6.10;99.90
13322;DHT22;6730;46.248;6.930;2023-02-01T15:31:46;6.20;99.90
13322;DHT22;6730;46.248;6.930;2023-02-01T15:34:12;6.30;99.90
13322;DHT22;6730;46.248;6.930;2023-02-01T15:36:38;6.10;99.90
13322;DHT22;6730;46.248;6.930;2023-02-01T15:39:24;5.60;99.90
13322;DHT22;6730;46.248;6.930;2023-02-01T15:41:57;5.20;99.90
13322;DHT22;6730;46.248;6.930;2023-02-01T15:44:47;5.10;99.90
13322;DHT22;6730;46.248;6.930;2023-02-01T15:47:24;4.70;99.90
13322;DHT22;6730;46.248;6.930;2023-02-01T15:49:52;4.60;99.90
13322;DHT22;6730;46.248;6.930;2023-02-01T15:52:27;4.60;99.90
13322;DHT22;6730;46.248;6.930;2023-02-01T15:55:00;4.80;99.90
13322;DHT22;6730;46.248;6.930;2023-02-01T15:57:35;4.90;99.90
13322;DHT22;6730;46.248;6.930;2023-02-01T16:00:07;4.20;99.90
13322;DHT22;6730;46.248;6.930;2023-02-01T16:02:42;4.10;99.90
13322;DHT22;6730;46.248;6.930;2023-02-01T16:05:46;4.50;99.90
13322;DHT22;6730;46.248;6.930;2023-02-01T16:08:23;4.60;99.90
13322;DHT22;6730;46.248;6.930;2023-02-01T16:10:51;4.60;99.90
13322;DHT22;6730;46.248;6.930;2023-02-01T16:13:19;4.90;99.90
13322;DHT22;6730;46.248;6.930;2023-02-01T16:15:46;4.70;99.90
13322;DHT22;6730;46.248;6.930;2023-02-01T16:18:12;4.70;99.90
13322;DHT22;6730;46.248;6.930;2023-02-01T16:20:40;4.40;99.90
13322;DHT22;6730;46.248;6.930;2023-02-01T16:23:07;4.30;99.90
13322;DHT22;6730;46.248;6.930;2023-02-01T16:25:33;4.50;99.90
13322;DHT22;6730;46.248;6.930;2023-02-01T16:27:59;4.50;99.90
13322;DHT22;6730;46.248;6.930;2023-02-01T16:30:25;4.50;99.90
13322;DHT22;6730;46.248;6.930;2023-02-01T16:32:59;4.40;99.90
13322;DHT22;6730;46.248;6.930;2023-02-01T16:35:36;4.40;99.90
13322;DHT22;6730;46.248;6.930;2023-02-01T16:38:10;4.60;99.90
13322;DHT22;6730;46.248;6.930;2023-02-01T16:40:38;4.80;99.90
13322;DHT22;6730;46.248;6.930;2023-02-01T16:45:42;4.80;99.90
13322;DHT22;6730;46.248;6.930;2023-02-01T16:48:25;4.80;99.90
13322;DHT22;6730;46.248;6.930;2023-02-01T16:50:59;4.50;99.90
13322;DHT22;6730;46.248;6.930;2023-02-01T16:53:27;4.50;99.90
13322;DHT22;6730;46.248;6.930;2023-02-01T16:55:54;4.70;99.90
13322;DHT22;6730;46.248;6.930;2023-02-01T16:58:20;4.90;99.90
13322;DHT22;6730;46.248;6.930;2023-02-01T17:00:48;5.20;99.90
13322;DHT22;6730;46.248;6.930;2023-02-01T17:03:14;5.30;99.90
13322;DHT22;6730;46.248;6.930;2023-02-01T17:05:50;5.50;99.90
13322;DHT22;6730;46.248;6.930;2023-02-01T17:08:22;5.30;99.90
13322;DHT22;6730;46.248;6.930;2023-02-01T17:10:50;4.60;99.90
13322;DHT22;6730;46.248;6.930;2023-02-01T17:13:16;4.30;99.90
13322;DHT22;6730;46.248;6.930;2023-02-01T17:15:51;4.20;99.90
13322;DHT22;6730;46.248;6.930;2023-02-01T17:18:18;4.40;99.90
13322;DHT22;6730;46.248;6.930;2023-02-01T17:20:44;4.70;99.90
13322;DHT22;6730;46.248;6.930;2023-02-01T17:23:12;5.10;99.90
13322;DHT22;6730;46.248;6.930;2023-02-01T17:25:38;5.30;99.90
13322;DHT22;6730;46.248;6.930;2023-02-01T17:28:05;5.30;99.90
13322;DHT22;6730;46.248;6.930;2023-02-01T17:30:31;5.00;99.90
13322;DHT22;6730;46.248;6.930;2023-02-01T17:32:57;4.70;99.90
13322;DHT22;6730;46.248;6.930;2023-02-01T17:35:27;4.80;99.90
13322;DHT22;6730;46.248;6.930;2023-02-01T17:37:54;4.90;99.90
13322;DHT22;6730;46.248;6.930;2023-02-01T17:40:20;4.70;99.90
13322;DHT22;6730;46.248;6.930;2023-02-01T17:42:46;4.60;99.90
13322;DHT22;6730;46.248;6.930;2023-02-01T17:45:36;4.50;99.90
13322;DHT22;6730;46.248;6.930;2023-02-01T17:48:05;4.40;99.90
13322;DHT22;6730;46.248;6.930;2023-02-01T17:50:34;4.50;99.90
13322;DHT22;6730;46.248;6.930;2023-02-01T17:53:00;4.70;99.90
13322;DHT22;6730;46.248;6.930;2023-02-01T17:55:28;4.80;99.90
13322;DHT22;6730;46.248;6.930;2023-02-01T17:57:53;4.70;99.90
13322;DHT22;6730;46.248;6.930;2023-02-01T18:00:19;4.40;99.90
13322;DHT22;6730;46.248;6.930;2023-02-01T18:02:46;4.10;99.90
13322;DHT22;6730;46.248;6.930;2023-02-01T18:05:40;4.30;99.90
13322;DHT22;6730;46.248;6.930;2023-02-01T18:08:07;4.40;99.90
13322;DHT22;6730;46.248;6.930;2023-02-01T18:10:33;4.90;99.90
13322;DHT22;6730;46.248;6.930;2023-02-01T18:13:03;5.10;99.90
13322;DHT22;6730;46.248;6.930;2023-02-01T18:15:30;5.40;99.90
13322;DHT22;6730;46.248;6.930;2023-02-01T18:17:56;5.40;99.90
13322;DHT22;6730;46.248;6.930;2023-02-01T18:20:23;5.30;99.90
13322;DHT22;6730;46.248;6.930;2023-02-01T18:22:50;5.50;99.90
13322;DHT22;6730;46.248;6.930;2023-02-01T18:25:24;5.30;99.90
13322;DHT22;6730;46.248;6.930;2023-02-01T18:27:52;5.50;99.90
13322;DHT22;6730;46.248;6.930;2023-02-01T18:30:20;5.60;99.90
13322;DHT22;6730;46.248;6.930;2023-02-01T18:32:46;5.20;99.90
13322;DHT22;6730;46.248;6.930;2023-02-01T18:35:22;4.80;99.90
13322;DHT22;6730;46.248;6.930;2023-02-01T18:37:49;5.10;99.90
13322;DHT22;6730;46.248;6.930;2023-02-01T18:40:19;5.20;99.90
13322;DHT22;6730;46.248;6.930;2023-02-01T18:42:45;5.40;99.90
13322;DHT22;6730;46.248;6.930;2023-02-01T18:47:49;5.60;99.90
13322;DHT22;6730;46.248;6.930;2023-02-01T18:50:16;5.70;99.90
13322;DHT22;6730;46.248;6.930;2023-02-01T18:52:41;5.60;99.90
13322;DHT22;6730;46.248;6.930;2023-02-01T18:55:07;5.60;99.90
13322;DHT22;6730;46.248;6.930;2023-02-01T18:57:34;5.20;99.90
13322;DHT22;6730;46.248;6.930;2023-02-01T18:59:59;5.10;99.90
13322;DHT22;6730;46.248;6.930;2023-02-01T19:02:26;5.30;99.90
13322;DHT22;6730;46.248;6.930;2023-02-01T19:04:52;5.40;99.90
13322;DHT22;6730;46.248;6.930;2023-02-01T19:07:17;5.50;99.90
13322;DHT22;6730;46.248;6.930;2023-02-01T19:09:43;5.60;99.90
13322;DHT22;6730;46.248;6.930;2023-02-01T19:12:09;5.80;99.90
13322;DHT22;6730;46.248;6.930;2023-02-01T19:14:34;5.80;99.90
13322;DHT22;6730;46.248;6.930;2023-02-01T19:17:00;5.60;99.90
13322;DHT22;6730;46.248;6.930;2023-02-01T19:19:26;5.70;99.90
13322;DHT22;6730;46.248;6.930;2023-02-01T19:21:51;5.60;99.90
13322;DHT22;6730;46.248;6.930;2023-02-01T19:24:17;5.70;99.90
13322;DHT22;6730;46.248;6.930;2023-02-01T19:26:43;5.70;99.90
13322;DHT22;6730;46.248;6.930;2023-02-01T19:29:09;5.60;99.90
13322;DHT22;6730;46.248;6.930;2023-02-01T19:31:35;5.60;99.90
13322;DHT22;6730;46.248;6.930;2023-02-01T19:34:01;5.40;99.90
13322;DHT22;6730;46.248;6.930;2023-02-01T19:36:27;5.10;99.90
13322;DHT22;6730;46.248;6.930;2023-02-01T19:38:52;5.20;99.90
13322;DHT22;6730;46.248;6.930;2023-02-01T19:41:19;5.20;99.90
13322;DHT22;6730;46.248;6.930;2023-02-01T19:43:44;5.30;99.90
13322;DHT22;6730;46.248;6.930;2023-02-01T19:46:11;5.20;99.90
13322;DHT22;6730;46.248;6.930;2023-02-01T19:48:36;5.30;99.90
13322;DHT22;6730;46.248;6.930;2023-02-01T19:51:02;5.40;99.90
13322;DHT22;6730;46.248;6.930;2023-02-01T19:53:29;5.50;99.90
13322;DHT22;6730;46.248;6.930;2023-02-01T19:55:55;5.60;99.90
13322;DHT22;6730;46.248;6.930;2023-02-01T19:58:22;5.50;99.90
13322;DHT22;6730;46.248;6.930;2023-02-01T20:00:52;5.50;99.90
13322;DHT22;6730;46.248;6.930;2023-02-01T20:03:18;5.50;99.90
13322;DHT22;6730;46.248;6.930;2023-02-01T20:05:44;5.50;99.90